Time;durP1;ratioP1;P1;durP2;ratioP2;P2;SDS_P1;SDS_P2;PMS_P1;PMS_P2;Temp;Humidity;BMP_temperature;BMP_pressure;BME280_temperature;BME280_humidity;BME280_pressure;Samples;Min_cycle;Max_cycle;Signal;HPM_P1;HPM_P2
2022/05/20 00:02:11;;;;;;;133.32;121.32;;;14.90;96.90;;;;;;4975073;28;20046;-72
2022/05/20 00:04:38;;;;;;;133.43;121.63;;;15.00;96.90;;;;;;4993280;28;20138;-72
2022/05/20 00:07:05;;;;;;;131.13;119.28;;;14.90;96.80;;;;;;4974899;28;20057;-72
2022/05/20 00:09:32;;;;;;;136.23;123.82;;;14.90;96.70;;;;;;4975201;28;20125;-73
2022/05/20 00:11:59;;;;;;;135.52;123.45;;;15.00;96.80;;;;;;4992686;28;20059;-73
2022/05/20 00:14:26;;;;;;;135.30;122.90;;;14.90;96.80;;;;;;4975300;28;20061;-72
2022/05/20 00:16:55;;;;;;;135.55;123.43;;;15.00;96.80;;;;;;4992927;28;20057;-72
2022/05/20 00:19:21;;;;;;;134.93;122.88;;;14.90;96.80;;;;;;4992512;28;20138;-73
2022/05/20 00:21:48;;;;;;;135.05;122.78;;;14.90;96.90;;;;;;4975706;28;20131;-73
2022/05/20 00:24:15;;;;;;;136.57;124.45;;;14.90;96.90;;;;;;4978747;28;20523;-73
2022/05/20 00:26:42;;;;;;;136.05;123.85;;;14.90;97.10;;;;;;4995947;28;20894;-72
2022/05/20 00:29:09;;;;;;;138.23;125.97;;;14.90;97.00;;;;;;4977963;28;20051;-73
2022/05/20 00:31:36;;;;;;;139.25;126.72;;;14.90;96.90;;;;;;4978517;28;20047;-73
2022/05/20 00:34:05;;;;;;;137.75;125.13;;;14.90;97.00;;;;;;4995682;28;20065;-73
2022/05/20 00:36:32;;;;;;;138.73;126.00;;;14.90;97.00;;;;;;4995462;28;20101;-73
2022/05/20 00:38:59;;;;;;;137.35;124.82;;;14.90;97.00;;;;;;4977938;28;20522;-72
2022/05/20 00:41:25;;;;;;;140.52;127.97;;;14.90;97.00;;;;;;4978145;28;20102;-73
2022/05/20 00:43:53;;;;;;;137.52;125.28;;;14.90;96.90;;;;;;4978004;28;20055;-73
2022/05/20 00:46:22;;;;;;;139.77;127.05;;;14.90;97.00;;;;;;4977295;28;20133;-73
2022/05/20 00:48:56;;;;;;;138.00;125.63;;;14.90;97.00;;;;;;4995075;28;20528;-73
2022/05/20 00:51:29;;;;;;;136.85;124.85;;;14.90;97.00;;;;;;4977075;28;20539;-72
2022/05/20 00:53:59;;;;;;;137.07;124.60;;;14.90;97.00;;;;;;5031453;22;20053;-73
2022/05/20 00:56:31;;;;;;;134.27;121.97;;;14.90;97.00;;;;;;4995319;28;20133;-73
2022/05/20 00:58:59;;;;;;;136.50;123.88;;;14.90;97.00;;;;;;4978985;28;20436;-72
2022/05/20 01:01:28;;;;;;;133.43;121.28;;;14.90;97.00;;;;;;5013431;28;20063;-73
2022/05/20 01:03:57;;;;;;;132.32;120.20;;;14.90;97.00;;;;;;5013111;28;20081;-72
2022/05/20 01:06:25;;;;;;;130.18;118.05;;;14.90;97.00;;;;;;4996704;28;20138;-72
2022/05/20 01:08:52;;;;;;;130.93;119.32;;;14.90;97.00;;;;;;4997073;28;20135;-75
2022/05/20 01:11:19;;;;;;;133.18;121.25;;;14.90;96.90;;;;;;4997030;28;20122;-75
2022/05/20 01:13:48;;;;;;;132.93;120.90;;;14.90;96.70;;;;;;4997294;28;20524;-75
2022/05/20 01:16:17;;;;;;;129.70;118.22;;;14.90;96.80;;;;;;4997286;28;20057;-75
2022/05/20 01:18:53;;;;;;;130.52;118.63;;;14.90;96.80;;;;;;4996821;28;20052;-75
2022/05/20 01:21:20;;;;;;;133.68;121.57;;;14.90;96.90;;;;;;5014736;28;20056;-75
2022/05/20 01:23:48;;;;;;;134.23;122.10;;;14.90;96.90;;;;;;4996820;28;20531;-75
2022/05/20 01:26:15;;;;;;;130.68;119.10;;;14.90;96.90;;;;;;5014387;28;20500;-75
2022/05/20 01:28:42;;;;;;;131.48;119.82;;;14.90;96.90;;;;;;4996569;28;20074;-75
2022/05/20 01:31:13;;;;;;;136.35;124.25;;;14.90;97.00;;;;;;4997073;28;20047;-75
2022/05/20 01:33:43;;;;;;;133.73;121.47;;;14.90;96.90;;;;;;4996979;28;20061;-75
2022/05/20 01:36:13;;;;;;;130.35;118.82;;;14.90;96.90;;;;;;5014678;28;20133;-75
2022/05/20 01:38:40;;;;;;;133.60;121.38;;;14.90;97.00;;;;;;4996594;28;20054;-75
2022/05/20 01:41:12;;;;;;;134.00;121.97;;;14.90;96.90;;;;;;5014332;28;20054;-75
2022/05/20 01:43:52;;;;;;;137.18;124.57;;;14.90;96.80;;;;;;4996789;28;20805;-75
2022/05/20 01:46:31;;;;;;;130.88;119.32;;;14.90;96.70;;;;;;5014755;28;20053;-75
2022/05/20 01:49:18;;;;;;;133.00;121.05;;;14.90;96.70;;;;;;5014389;28;20053;-75
2022/05/20 01:51:51;;;;;;;132.07;120.10;;;14.90;96.50;;;;;;4996873;28;20166;-75
2022/05/20 01:54:24;;;;;;;133.02;121.15;;;14.90;96.50;;;;;;4996626;28;20417;-75
2022/05/20 01:56:59;;;;;;;131.00;119.30;;;14.90;96.40;;;;;;5014459;28;20055;-74
2022/05/20 01:59:33;;;;;;;132.70;121.03;;;14.90;96.40;;;;;;4980048;28;20133;-75
2022/05/20 02:02:04;;;;;;;133.43;120.95;;;14.90;96.40;;;;;;4996587;28;20053;-75
2022/05/20 02:04:38;;;;;;;134.27;122.07;;;14.90;96.30;;;;;;4996597;28;20049;-75
2022/05/20 02:07:09;;;;;;;134.82;122.63;;;14.90;96.30;;;;;;4995811;28;20133;-75
2022/05/20 02:09:43;;;;;;;135.30;123.00;;;14.90;96.30;;;;;;4996323;28;20461;-75
2022/05/20 02:12:15;;;;;;;136.27;123.82;;;14.90;96.30;;;;;;4996300;28;20062;-75
2022/05/20 02:14:47;;;;;;;135.68;123.53;;;14.90;96.30;;;;;;4996349;28;20251;-75
2022/05/20 02:17:18;;;;;;;134.43;121.90;;;14.90;96.40;;;;;;5013796;28;20054;-75
2022/05/20 02:19:49;;;;;;;134.85;122.82;;;14.90;96.40;;;;;;4996233;28;20046;-75
2022/05/20 02:22:19;;;;;;;131.70;119.60;;;14.90;96.40;;;;;;5013815;28;20835;-75
2022/05/20 02:24:47;;;;;;;135.90;123.35;;;14.90;96.30;;;;;;4996204;28;20133;-75
2022/05/20 02:27:20;;;;;;;137.48;124.97;;;14.90;96.30;;;;;;4995995;28;20587;-75
2022/05/20 02:29:51;;;;;;;130.40;118.55;;;14.90;96.30;;;;;;5013668;28;20055;-75
2022/05/20 02:32:24;;;;;;;131.27;119.22;;;14.90;96.40;;;;;;4996288;28;20078;-75
2022/05/20 02:34:52;;;;;;;129.02;117.57;;;14.90;96.40;;;;;;4996017;28;20101;-75
2022/05/20 02:37:22;;;;;;;132.38;119.97;;;14.90;96.40;;;;;;5013250;28;20053;-75
2022/05/20 02:39:49;;;;;;;129.18;117.65;;;14.90;96.40;;;;;;4996624;28;20043;-75
2022/05/20 02:42:18;;;;;;;131.38;119.47;;;14.90;96.30;;;;;;5013775;28;20153;-75
2022/05/20 02:44:45;;;;;;;137.90;125.38;;;14.90;96.30;;;;;;4995074;28;20047;-75
2022/05/20 02:47:12;;;;;;;135.90;123.40;;;14.90;96.40;;;;;;5013615;28;20820;-75
2022/05/20 02:49:40;;;;;;;134.55;122.18;;;14.90;96.40;;;;;;4995637;28;20046;-75
2022/05/20 02:52:08;;;;;;;135.25;122.47;;;14.90;96.40;;;;;;4995685;28;20081;-75
2022/05/20 02:54:35;;;;;;;135.80;123.50;;;14.90;96.40;;;;;;5012748;28;20097;-75
2022/05/20 02:57:03;;;;;;;136.50;124.15;;;14.90;96.40;;;;;;5013138;28;20054;-75
2022/05/20 03:05:25;;;;;;;133.32;121.25;;;14.90;96.50;;;;;;4995306;28;20515;-75
2022/05/20 03:07:52;;;;;;;133.70;121.45;;;14.90;96.70;;;;;;4995430;28;20164;-75
2022/05/20 03:10:19;;;;;;;132.70;121.25;;;14.90;96.60;;;;;;4995346;28;20046;-75
2022/05/20 03:12:46;;;;;;;131.70;120.20;;;14.90;96.50;;;;;;5012844;28;20076;-75
2022/05/20 03:15:17;;;;;;;136.15;123.97;;;14.90;96.50;;;;;;4995754;28;20046;-75
2022/05/20 03:17:45;;;;;;;133.93;122.15;;;14.90;96.70;;;;;;4995066;28;21156;-75
2022/05/20 03:20:12;;;;;;;135.30;123.15;;;14.90;96.70;;;;;;4995324;28;20050;-75
2022/05/20 03:22:39;;;;;;;134.88;122.60;;;14.90;96.80;;;;;;4995062;28;20141;-75
2022/05/20 03:25:08;;;;;;;133.70;121.95;;;14.90;96.70;;;;;;4994962;28;20054;-75
2022/05/20 03:27:34;;;;;;;131.85;120.15;;;14.90;96.90;;;;;;4994808;28;20062;-75
2022/05/20 03:30:01;;;;;;;131.90;120.20;;;14.90;96.70;;;;;;4995135;28;20990;-75
2022/05/20 03:32:30;;;;;;;131.82;120.28;;;14.80;96.60;;;;;;5012853;28;20112;-75
2022/05/20 03:34:57;;;;;;;132.40;120.55;;;14.80;96.50;;;;;;4995005;28;20058;-75
2022/05/20 03:37:25;;;;;;;132.15;120.63;;;14.80;96.50;;;;;;4994756;28;20058;-75
2022/05/20 03:39:52;;;;;;;131.07;119.53;;;14.70;96.50;;;;;;4995250;28;20046;-75
2022/05/20 03:42:19;;;;;;;130.25;118.80;;;14.70;96.50;;;;;;4978973;28;20046;-75
2022/05/20 03:44:46;;;;;;;132.50;120.50;;;14.70;96.40;;;;;;4994917;28;20615;-75
2022/05/20 03:47:13;;;;;;;128.15;116.95;;;14.60;96.40;;;;;;4994691;28;20109;-75
2022/05/20 03:49:42;;;;;;;130.10;118.57;;;14.60;96.30;;;;;;4995073;28;20473;-75
2022/05/20 03:52:10;;;;;;;134.57;122.78;;;14.60;96.20;;;;;;4995134;28;20043;-75
2022/05/20 03:54:38;;;;;;;132.80;121.20;;;14.50;96.20;;;;;;4994186;28;20170;-75
2022/05/20 03:57:06;;;;;;;135.60;123.35;;;14.50;96.20;;;;;;4997017;28;20051;-75
2022/05/20 03:59:36;;;;;;;132.10;120.28;;;14.50;96.10;;;;;;4998099;28;20046;-75
2022/05/20 04:02:05;;;;;;;130.82;119.22;;;14.40;96.10;;;;;;4998539;28;20520;-75
2022/05/20 04:04:36;;;;;;;130.85;119.22;;;14.40;96.10;;;;;;4998726;28;20053;-75
2022/05/20 04:07:07;;;;;;;130.48;119.00;;;14.40;96.10;;;;;;5015514;28;20058;-75
2022/05/20 04:09:34;;;;;;;129.85;117.90;;;14.40;96.10;;;;;;4998018;28;21029;-75
2022/05/20 04:12:03;;;;;;;127.40;115.97;;;14.30;96.00;;;;;;5010006;28;20213;-75
2022/05/20 04:14:31;;;;;;;130.63;119.13;;;14.30;96.00;;;;;;4987323;28;20046;-75
2022/05/20 04:16:59;;;;;;;131.90;120.40;;;14.30;96.10;;;;;;4988436;28;20059;-75
2022/05/20 04:19:29;;;;;;;130.70;119.00;;;14.30;96.10;;;;;;4985987;28;20051;-75
2022/05/20 04:21:59;;;;;;;128.35;116.47;;;14.30;96.10;;;;;;5006569;28;20621;-75
2022/05/20 04:24:27;;;;;;;128.70;117.07;;;14.20;96.00;;;;;;4989561;28;20079;-75
2022/05/20 04:26:54;;;;;;;128.57;116.97;;;14.30;96.10;;;;;;5003043;28;20051;-75
2022/05/20 04:29:21;;;;;;;128.73;116.93;;;14.30;96.00;;;;;;4991086;28;20057;-75
2022/05/20 04:31:50;;;;;;;127.90;116.45;;;14.30;96.00;;;;;;5005270;28;20085;-73
2022/05/20 04:34:18;;;;;;;126.15;114.78;;;14.30;95.90;;;;;;5002585;28;20067;-73
2022/05/20 04:36:50;;;;;;;125.38;114.00;;;14.20;95.90;;;;;;5003314;28;20143;-73
2022/05/20 04:39:17;;;;;;;127.20;115.88;;;14.20;95.90;;;;;;5006404;28;20047;-73
2022/05/20 04:47:21;;;;;;;130.30;118.50;;;14.20;96.00;;;;;;5008822;28;20523;-73
2022/05/20 04:49:48;;;;;;;127.47;116.15;;;14.20;96.10;;;;;;4990511;28;20800;-72
2022/05/20 04:52:15;;;;;;;130.73;119.00;;;14.10;96.10;;;;;;5006053;28;20141;-73
2022/05/20 04:54:51;;;;;;;131.18;119.15;;;14.20;96.20;;;;;;5002981;28;20057;-72
2022/05/20 04:57:22;;;;;;;132.30;120.45;;;14.20;96.20;;;;;;4986156;28;20090;-72
2022/05/20 04:59:51;;;;;;;130.07;118.47;;;14.20;96.20;;;;;;4987096;28;20045;-72
2022/05/20 05:02:18;;;;;;;130.65;118.95;;;14.20;96.30;;;;;;5005387;28;20117;-72
2022/05/20 05:04:45;;;;;;;131.65;119.70;;;14.20;96.30;;;;;;5004289;28;20054;-72
2022/05/20 05:07:12;;;;;;;133.93;121.75;;;14.20;96.40;;;;;;4987804;28;20054;-72
2022/05/20 05:09:40;;;;;;;131.07;119.28;;;14.20;96.40;;;;;;5010731;28;20047;-72
2022/05/20 05:12:08;;;;;;;132.75;120.60;;;14.20;96.40;;;;;;4996819;28;20516;-72
2022/05/20 05:14:42;;;;;;;131.63;119.82;;;14.30;96.50;;;;;;4997296;28;20149;-73
2022/05/20 05:17:10;;;;;;;132.02;120.32;;;14.30;96.50;;;;;;5014267;28;20709;-72
2022/05/20 05:19:39;;;;;;;127.78;116.43;;;14.30;96.50;;;;;;4994968;28;20039;-71
2022/05/20 05:22:07;;;;;;;128.18;116.53;;;14.20;96.40;;;;;;4993386;28;20429;-72
2022/05/20 05:24:35;;;;;;;131.23;119.25;;;14.30;96.40;;;;;;5013737;28;20050;-73
2022/05/20 05:27:04;;;;;;;129.60;118.10;;;14.20;96.40;;;;;;5005861;28;20058;-72
2022/05/20 05:29:32;;;;;;;129.15;117.63;;;14.30;96.50;;;;;;5003255;28;20126;-72
2022/05/20 05:32:00;;;;;;;126.55;115.25;;;14.30;96.50;;;;;;5004943;28;20106;-72
2022/05/20 05:34:27;;;;;;;126.43;115.03;;;14.30;96.40;;;;;;5002432;28;20057;-72
2022/05/20 05:36:54;;;;;;;127.05;115.15;;;14.30;96.30;;;;;;5006445;28;20093;-72
2022/05/20 05:39:21;;;;;;;123.90;112.72;;;14.30;96.20;;;;;;4986470;28;20042;-72
2022/05/20 05:41:48;;;;;;;126.00;114.68;;;14.30;96.20;;;;;;5005015;28;20055;-73
2022/05/20 05:44:15;;;;;;;123.70;112.57;;;14.40;96.10;;;;;;5010732;28;20133;-72
2022/05/20 05:46:42;;;;;;;119.82;109.13;;;14.40;96.00;;;;;;4996902;28;20064;-74
2022/05/20 05:49:10;;;;;;;124.68;113.53;;;14.40;96.20;;;;;;4979495;28;20061;-73
2022/05/20 05:51:37;;;;;;;124.93;113.65;;;14.40;96.60;;;;;;5013911;28;20047;-73
2022/05/20 05:54:04;;;;;;;127.03;115.55;;;14.50;96.60;;;;;;4978826;28;20134;-73
2022/05/20 05:56:31;;;;;;;123.03;112.13;;;14.50;96.50;;;;;;5012623;28;20054;-74
2022/05/20 05:58:58;;;;;;;123.72;112.53;;;14.50;96.40;;;;;;4995731;28;20152;-74
2022/05/20 06:01:25;;;;;;;123.28;112.18;;;14.60;96.60;;;;;;4992853;28;20054;-74
2022/05/20 06:03:52;;;;;;;124.03;113.00;;;14.50;96.70;;;;;;4979565;28;20508;-74
2022/05/20 06:06:20;;;;;;;126.65;115.38;;;14.60;96.80;;;;;;4995279;28;20061;-74
2022/05/20 06:08:47;;;;;;;123.10;112.22;;;14.60;96.80;;;;;;5008034;28;20135;-75
2022/05/20 06:11:15;;;;;;;125.78;114.53;;;14.70;96.70;;;;;;5012474;28;20126;-75
2022/05/20 06:13:42;;;;;;;123.88;113.07;;;14.70;96.70;;;;;;5012007;28;20054;-75
2022/05/20 06:16:09;;;;;;;132.60;120.88;;;14.80;96.80;;;;;;4994272;28;20101;-75
2022/05/20 06:18:36;;;;;;;130.32;118.72;;;14.80;96.80;;;;;;4994060;28;20149;-75
2022/05/20 06:21:04;;;;;;;130.93;119.38;;;14.90;96.70;;;;;;4994093;28;20546;-75
2022/05/20 06:23:33;;;;;;;125.93;114.82;;;14.90;96.60;;;;;;4994861;28;20683;-74
2022/05/20 06:26:00;;;;;;;125.07;114.20;;;15.00;96.70;;;;;;5012653;28;20178;-75
2022/05/20 06:28:27;;;;;;;126.82;115.60;;;15.00;96.70;;;;;;4995961;28;20081;-75
2022/05/20 06:30:54;;;;;;;128.68;117.40;;;15.10;96.70;;;;;;4996137;28;20046;-75
2022/05/20 06:33:21;;;;;;;128.77;117.43;;;15.10;96.70;;;;;;4979939;28;20055;-74
2022/05/20 06:41:17;;;;;;;123.85;112.68;;;15.20;96.60;;;;;;4995891;28;20089;-76
2022/05/20 06:43:44;;;;;;;125.57;114.18;;;15.30;96.60;;;;;;4995421;28;20050;-75
2022/05/20 06:46:11;;;;;;;129.00;117.93;;;15.30;96.60;;;;;;4995252;28;20042;-75
2022/05/20 06:48:42;;;;;;;128.57;117.40;;;15.30;96.60;;;;;;4995282;28;20053;-75
2022/05/20 06:51:12;;;;;;;127.57;116.30;;;15.40;96.60;;;;;;5012731;28;20519;-76
2022/05/20 06:53:40;;;;;;;124.95;114.10;;;15.40;96.50;;;;;;4995110;28;20054;-76
2022/05/20 06:56:08;;;;;;;127.22;116.03;;;15.50;96.50;;;;;;4996174;28;20054;-76
2022/05/20 06:58:35;;;;;;;129.02;117.90;;;15.50;96.40;;;;;;5012725;28;20577;-76
2022/05/20 07:01:03;;;;;;;125.35;114.18;;;15.50;96.20;;;;;;5013053;28;20054;-76
2022/05/20 07:03:30;;;;;;;130.23;118.90;;;15.60;96.20;;;;;;5012967;28;20058;-76
2022/05/20 07:05:57;;;;;;;130.27;118.78;;;15.60;95.90;;;;;;4995173;28;20141;-76
2022/05/20 07:08:24;;;;;;;130.48;119.05;;;15.60;95.70;;;;;;4995100;28;20050;-76
2022/05/20 07:10:53;;;;;;;130.13;118.53;;;15.60;95.50;;;;;;4995396;28;20065;-77
2022/05/20 07:13:20;;;;;;;130.80;119.30;;;15.70;95.40;;;;;;4995377;28;20428;-75
2022/05/20 07:15:46;;;;;;;131.68;120.28;;;15.70;95.40;;;;;;5012972;28;20054;-75
2022/05/20 07:18:13;;;;;;;132.48;121.03;;;15.70;95.40;;;;;;4994552;28;20059;-76
2022/05/20 07:20:42;;;;;;;129.43;118.07;;;15.70;94.90;;;;;;4994676;28;20506;-76
2022/05/20 07:23:09;;;;;;;130.52;118.88;;;15.70;95.10;;;;;;5012061;28;20065;-77
2022/05/20 07:25:37;;;;;;;132.25;120.85;;;15.70;95.30;;;;;;4995508;28;20054;-78
2022/05/20 07:28:06;;;;;;;133.93;122.43;;;15.70;95.40;;;;;;5011801;28;20105;-77
2022/05/20 07:30:34;;;;;;;131.45;120.10;;;15.70;95.40;;;;;;4994161;28;20523;-76
2022/05/20 07:33:01;;;;;;;133.68;121.95;;;15.80;95.00;;;;;;4998365;28;20138;-76
2022/05/20 07:35:28;;;;;;;133.40;121.70;;;15.80;95.00;;;;;;5016110;28;20054;-77
2022/05/20 07:37:55;;;;;;;129.80;118.78;;;15.80;95.10;;;;;;5007313;28;20057;-75
2022/05/20 07:40:23;;;;;;;133.43;122.03;;;15.80;95.20;;;;;;4990265;28;20114;-75
2022/05/20 07:42:51;;;;;;;134.00;122.47;;;15.80;95.40;;;;;;5015471;28;20497;-76
2022/05/20 07:45:19;;;;;;;136.07;124.32;;;15.90;95.50;;;;;;4997513;28;20105;-76
2022/05/20 07:47:46;;;;;;;132.13;121.00;;;15.90;95.40;;;;;;5002098;28;20090;-77
2022/05/20 07:50:14;;;;;;;132.00;120.85;;;16.00;95.40;;;;;;4996566;28;20519;-77
2022/05/20 07:55:41;;;;;;;134.73;123.30;;;16.10;95.60;;;;;;4977216;28;20519;-77
2022/05/20 07:58:12;;;;;;;133.05;121.53;;;16.10;95.50;;;;;;4995478;28;20121;-76
2022/05/20 08:00:41;;;;;;;131.73;120.55;;;16.30;95.40;;;;;;4994847;28;20056;-76
2022/05/20 08:03:09;;;;;;;134.70;123.03;;;16.30;95.10;;;;;;5015040;28;20088;-77
2022/05/20 08:05:35;;;;;;;136.18;124.78;;;16.40;95.00;;;;;;4981804;28;20910;-76
2022/05/20 08:08:05;;;;;;;135.18;123.68;;;16.40;95.00;;;;;;5014866;28;20050;-77
2022/05/20 08:10:34;;;;;;;134.05;122.60;;;16.40;94.90;;;;;;4998500;28;20570;-78
2022/05/20 08:13:02;;;;;;;130.02;119.13;;;16.50;94.70;;;;;;4998158;28;20061;-77
2022/05/20 08:15:31;;;;;;;133.32;122.10;;;16.50;94.70;;;;;;4998672;28;20523;-76
2022/05/20 08:17:59;;;;;;;130.48;119.32;;;16.60;94.70;;;;;;4997991;28;20057;-77
2022/05/20 08:20:28;;;;;;;132.05;120.97;;;16.60;94.70;;;;;;4998064;28;20058;-77
2022/05/20 08:22:57;;;;;;;132.70;121.60;;;16.70;94.60;;;;;;4997954;28;20058;-76
2022/05/20 08:25:25;;;;;;;130.82;119.82;;;16.70;94.20;;;;;;4998354;28;20509;-76
2022/05/20 08:27:53;;;;;;;131.13;120.28;;;16.80;93.70;;;;;;4977326;28;20138;-83
2022/05/20 08:30:24;;;;;;;128.65;117.95;;;16.80;93.30;;;;;;4978262;28;20141;-74
2022/05/20 08:32:52;;;;;;;130.13;119.30;;;16.80;93.40;;;;;;5012140;28;20054;-75
2022/05/20 08:35:21;;;;;;;130.10;119.18;;;16.80;93.60;;;;;;5015637;28;20145;-74
2022/05/20 08:37:49;;;;;;;131.57;120.40;;;16.90;93.60;;;;;;5014645;28;20155;-76
2022/05/20 08:40:21;;;;;;;133.20;122.00;;;17.00;93.60;;;;;;4997461;28;20085;-76
2022/05/20 08:42:51;;;;;;;133.63;122.50;;;17.00;92.90;;;;;;4996461;28;20523;-76
2022/05/20 08:45:21;;;;;;;137.15;125.97;;;17.00;92.40;;;;;;4997030;28;20137;-75
2022/05/20 08:47:50;;;;;;;133.50;122.60;;;17.10;92.30;;;;;;4997297;28;20109;-75
2022/05/20 08:50:20;;;;;;;134.32;123.13;;;17.00;92.50;;;;;;4997571;28;20054;-75
2022/05/20 08:52:51;;;;;;;137.18;125.97;;;17.10;92.30;;;;;;4997886;28;20062;-75
2022/05/20 08:55:18;;;;;;;136.63;125.53;;;17.10;92.20;;;;;;4997361;28;20046;-75
2022/05/20 08:57:49;;;;;;;137.23;126.25;;;17.10;92.30;;;;;;4997413;28;20065;-76
2022/05/20 09:00:17;;;;;;;133.95;122.97;;;17.20;92.20;;;;;;4996811;28;20648;-74
2022/05/20 09:02:44;;;;;;;129.80;119.32;;;17.20;92.30;;;;;;4997047;28;20046;-75
2022/05/20 09:05:18;;;;;;;132.65;121.75;;;17.30;92.20;;;;;;4996919;28;20105;-75
2022/05/20 09:08:03;;;;;;;131.98;121.25;;;17.40;92.30;;;;;;4996730;28;20133;-75
2022/05/20 09:10:42;;;;;;;131.85;121.05;;;17.40;92.30;;;;;;4994758;28;20058;-75
2022/05/20 09:13:19;;;;;;;134.35;123.47;;;17.50;90.90;;;;;;4997213;28;20062;-75
2022/05/20 09:15:57;;;;;;;133.30;122.22;;;17.50;90.30;;;;;;4995711;28;20874;-75
2022/05/20 09:18:33;;;;;;;133.75;122.75;;;17.60;90.40;;;;;;5013072;28;20214;-75
2022/05/20 09:21:00;;;;;;;135.25;124.45;;;17.60;90.50;;;;;;5014261;28;20105;-75
2022/05/20 09:23:30;;;;;;;133.63;122.60;;;17.60;90.70;;;;;;4996623;28;20118;-75
2022/05/20 09:26:04;;;;;;;133.65;122.80;;;17.70;90.40;;;;;;4996177;28;20066;-76
2022/05/20 09:28:39;;;;;;;133.88;123.28;;;17.80;90.40;;;;;;5014557;28;20146;-76
2022/05/20 09:31:07;;;;;;;;;;;17.80;89.80;;;;;;4996806;28;20145;-76
2022/05/20 09:33:36;;;;;;;134.45;123.47;;;17.90;89.80;;;;;;5014288;28;20032;-77
2022/05/20 09:36:04;;;;;;;134.60;123.97;;;17.90;88.70;;;;;;4996825;28;20869;-77
2022/05/20 09:38:39;;;;;;;134.65;123.72;;;18.00;89.30;;;;;;4996585;28;20058;-77
2022/05/20 09:41:20;;;;;;;137.43;126.32;;;18.00;90.00;;;;;;5014373;28;20054;-76
2022/05/20 09:43:56;;;;;;;133.77;122.85;;;18.10;89.90;;;;;;4996503;28;20046;-76
2022/05/20 09:46:30;;;;;;;135.52;124.70;;;18.20;90.00;;;;;;5013690;28;20121;-76
2022/05/20 09:49:04;;;;;;;134.77;124.07;;;18.30;86.30;;;;;;5013585;28;20100;-76
2022/05/20 09:51:38;;;;;;;132.18;121.13;;;18.30;86.30;;;;;;5013975;28;20093;-77
2022/05/20 09:54:16;;;;;;;134.15;123.55;;;18.30;85.90;;;;;;4994005;28;20113;-77
2022/05/20 09:56:46;;;;;;;133.95;123.28;;;18.30;85.80;;;;;;4996983;28;20137;-77
2022/05/20 09:59:22;;;;;;;134.35;123.25;;;18.40;85.40;;;;;;4996234;28;20097;-76
2022/05/20 10:01:58;;;;;;;135.02;124.25;;;18.40;85.80;;;;;;4996046;28;20061;-77
2022/05/20 10:04:37;;;;;;;135.60;125.00;;;18.50;84.90;;;;;;4995361;28;20055;-77
2022/05/20 10:07:10;;;;;;;150.80;138.55;;;18.50;83.60;;;;;;5027641;22;20058;-79
2022/05/20 10:09:43;;;;;;;140.60;129.82;;;18.50;83.00;;;;;;4976914;28;20051;-78
2022/05/20 10:12:17;;;;;;;142.60;131.70;;;18.50;81.30;;;;;;5008635;28;20061;-78
2022/05/20 10:14:52;;;;;;;142.90;131.93;;;18.50;80.70;;;;;;4989485;28;20082;-78
2022/05/20 10:17:30;;;;;;;146.10;134.88;;;18.50;80.80;;;;;;4993428;28;20062;-77
2022/05/20 10:20:04;;;;;;;145.13;133.35;;;18.60;80.70;;;;;;4993692;28;20074;-76
2022/05/20 10:22:43;;;;;;;140.23;129.13;;;18.60;81.50;;;;;;5009771;28;20141;-77
2022/05/20 10:25:17;;;;;;;136.48;126.00;;;18.60;81.90;;;;;;4978668;28;20061;-77
2022/05/20 10:27:54;;;;;;;138.32;127.63;;;18.60;82.80;;;;;;4988939;28;20353;-77
2022/05/20 10:33:14;;;;;;;137.98;127.07;;;18.80;83.50;;;;;;4975505;28;20059;-78
2022/05/20 10:35:53;;;;;;;136.50;125.47;;;18.90;84.20;;;;;;4990995;28;20058;-82
2022/05/20 10:38:45;;;;;;;140.35;129.27;;;18.90;84.00;;;;;;4975541;28;20057;-82
2022/05/20 10:41:21;;;;;;;138.32;127.72;;;19.00;84.00;;;;;;4993576;28;20133;-81
2022/05/20 10:49:55;;;;;;;143.88;132.90;;;19.20;83.00;;;;;;4978260;28;20052;-81
2022/05/20 10:52:53;;;;;;;140.93;130.13;;;19.20;83.30;;;;;;4994466;28;20081;-81
2022/05/20 10:55:30;;;;;;;136.93;126.22;;;19.40;81.80;;;;;;4992200;28;20055;-78
2022/05/20 10:58:34;;;;;;;135.85;125.45;;;19.50;80.80;;;;;;4994790;28;20572;-78
2022/05/20 11:01:10;;;;;;;143.23;132.43;;;19.50;79.00;;;;;;4957643;28;20113;-78
2022/05/20 11:04:05;;;;;;;143.07;132.25;;;19.50;78.80;;;;;;4994134;28;20077;-79
2022/05/20 11:06:56;;;;;;;141.73;131.02;;;19.60;78.60;;;;;;4990758;28;20054;-77
2022/05/20 11:09:34;;;;;;;140.60;130.13;;;19.70;76.10;;;;;;4977903;28;20074;-78
2022/05/20 11:12:03;;;;;;;144.50;133.60;;;19.70;75.60;;;;;;4974005;28;20046;-78
2022/05/20 11:15:00;;;;;;;142.25;131.60;;;19.80;76.20;;;;;;4974275;28;20129;-78
2022/05/20 11:17:57;;;;;;;140.20;129.80;;;19.90;76.50;;;;;;4974599;28;20055;-77
2022/05/20 11:20:52;;;;;;;141.85;131.32;;;20.00;75.80;;;;;;4974855;28;20501;-77
2022/05/20 11:23:49;;;;;;;144.05;133.25;;;20.00;75.00;;;;;;4958442;28;20133;-78
2022/05/20 11:26:46;;;;;;;143.75;132.85;;;20.10;74.90;;;;;;4975015;28;20054;-78
2022/05/20 11:29:48;;;;;;;143.30;132.45;;;20.20;76.00;;;;;;4988660;28;20130;-77
2022/05/20 11:32:27;;;;;;;143.07;132.27;;;20.30;75.90;;;;;;5009344;28;20055;-78
2022/05/20 11:35:26;;;;;;;145.77;134.90;;;20.30;75.60;;;;;;4979327;28;20123;-78
2022/05/20 11:38:38;;;;;;;141.82;131.32;;;20.40;75.50;;;;;;4959767;28;20054;-78
2022/05/20 11:41:22;;;;;;;142.48;131.95;;;20.60;76.10;;;;;;4919911;28;20126;-77
2022/05/20 11:44:06;;;;;;;146.48;135.40;;;20.60;75.10;;;;;;4975694;28;20057;-78
2022/05/20 11:46:48;;;;;;;147.13;136.07;;;20.70;75.80;;;;;;4975763;28;20561;-78
2022/05/20 11:49:35;;;;;;;145.27;134.48;;;20.80;73.70;;;;;;4975447;28;20596;-77
2022/05/20 11:52:33;;;;;;;140.77;130.48;;;20.90;74.30;;;;;;4975568;28;20046;-77
2022/05/20 11:55:05;;;;;;;140.43;130.13;;;20.90;73.50;;;;;;4990088;28;20137;-78
2022/05/20 11:57:38;;;;;;;139.50;129.32;;;20.90;72.00;;;;;;4977961;28;20138;-78
2022/05/20 12:00:10;;;;;;;138.07;127.63;;;20.90;71.50;;;;;;4994332;28;20530;-78
2022/05/20 12:02:41;;;;;;;141.48;130.77;;;20.90;71.60;;;;;;4994205;28;20051;-77
2022/05/20 12:05:12;;;;;;;139.68;129.38;;;21.00;71.60;;;;;;4994198;28;20050;-78
2022/05/20 12:07:39;;;;;;;140.52;130.20;;;21.00;70.00;;;;;;4994115;28;20049;-79
2022/05/20 12:10:43;;;;;;;140.13;130.02;;;20.90;68.60;;;;;;4991190;28;20090;-79
2022/05/20 12:13:24;;;;;;;135.23;125.32;;;20.90;68.60;;;;;;4987219;28;20055;-78
2022/05/20 12:16:11;;;;;;;137.88;127.85;;;20.90;68.20;;;;;;4993200;28;20125;-78
2022/05/20 12:24:39;;;;;;;141.38;131.05;;;20.90;66.50;;;;;;5004121;28;20046;-75
2022/05/20 12:27:12;;;;;;;145.25;134.68;;;20.90;66.20;;;;;;5013800;28;20129;-75
2022/05/20 12:30:00;;;;;;;139.88;129.60;;;20.90;66.20;;;;;;4997107;28;20046;-74
2022/05/20 12:32:43;;;;;;;142.52;131.90;;;20.90;67.90;;;;;;4996602;28;20047;-74
2022/05/20 12:35:12;;;;;;;141.35;130.85;;;20.90;67.70;;;;;;4981322;28;20047;-75
2022/05/20 12:38:24;;;;;;;144.10;133.63;;;20.90;68.10;;;;;;5014241;28;20512;-75
2022/05/20 12:41:17;;;;;;;142.32;131.70;;;20.90;68.40;;;;;;5015487;28;20073;-75
2022/05/20 12:43:48;;;;;;;141.27;131.05;;;20.90;67.80;;;;;;4997034;28;20511;-75
2022/05/20 12:46:42;;;;;;;143.57;132.88;;;20.90;67.90;;;;;;4995127;28;20047;-75
2022/05/20 12:49:09;;;;;;;143.05;132.35;;;20.90;68.30;;;;;;4992663;28;20153;-75
2022/05/20 12:51:46;;;;;;;142.48;131.98;;;20.90;68.90;;;;;;5014670;28;20488;-74
2022/05/20 12:54:24;;;;;;;146.30;134.32;;;21.00;69.90;;;;;;4996359;28;20516;-74
2022/05/20 12:57:06;;;;;;;141.32;130.63;;;21.00;70.40;;;;;;4980562;28;20056;-75
2022/05/20 12:59:33;;;;;;;139.45;129.30;;;21.00;70.00;;;;;;4996955;28;20738;-75
2022/05/20 13:02:07;;;;;;;139.35;129.10;;;21.00;70.00;;;;;;4980189;28;20701;-74
2022/05/20 13:04:39;;;;;;;139.23;129.02;;;21.00;70.00;;;;;;4997139;28;20102;-75
2022/05/20 13:07:11;;;;;;;139.18;128.95;;;21.00;70.30;;;;;;4996106;28;20196;-75